Time;durP1;ratioP1;P1;durP2;ratioP2;P2;SDS_P1;SDS_P2;PMS_P1;PMS_P2;Temp;Humidity;BMP_temperature;BMP_pressure;BME280_temperature;BME280_humidity;BME280_pressure;Samples;Min_cycle;Max_cycle;Signal;HPM_P1;HPM_P2
2023/01/17 07:59:26;;;;;;;3.88;0.80;;;14.20;99.90;;;;;;5064698;28;20388;-76
2023/01/17 08:01:52;;;;;;;3.95;0.70;;;14.10;99.90;;;;;;5040899;28;20107;-73
2023/01/17 08:04:18;;;;;;;7.60;3.05;;;14.20;99.90;;;;;;5049438;28;20053;-83
2023/01/17 08:06:47;;;;;;;8.00;2.50;;;14.20;99.90;;;;;;5059162;28;20025;-76
2023/01/17 08:09:13;;;;;;;3.72;1.10;;;14.30;99.90;;;;;;5052034;28;20021;-78
2023/01/17 08:11:39;;;;;;;3.03;1.02;;;14.40;99.90;;;;;;5053081;28;20129;-78
2023/01/17 08:14:05;;;;;;;5.72;0.95;;;14.40;99.90;;;;;;5051764;28;20044;-74
2023/01/17 08:16:31;;;;;;;5.03;0.90;;;14.40;99.90;;;;;;5051600;28;20049;-74
2023/01/17 08:18:57;;;;;;;4.85;1.00;;;14.50;99.90;;;;;;5050866;28;20045;-78
2023/01/17 08:21:23;;;;;;;2.45;0.70;;;14.50;99.90;;;;;;5042590;28;20126;-75
2023/01/17 08:23:51;;;;;;;3.42;0.90;;;14.60;99.90;;;;;;5051052;28;20029;-79
2023/01/17 08:26:21;;;;;;;4.55;1.15;;;14.60;99.90;;;;;;5052203;28;20067;-75
2023/01/17 08:28:55;;;;;;;3.72;0.90;;;14.70;99.90;;;;;;5053221;28;20033;-74
2023/01/17 08:31:22;;;;;;;2.65;0.90;;;14.70;99.90;;;;;;5051408;28;20040;-84
2023/01/17 08:33:48;;;;;;;2.35;0.80;;;14.80;99.90;;;;;;5038537;28;20064;-76
2023/01/17 08:36:13;;;;;;;3.50;0.90;;;14.80;99.90;;;;;;5039570;28;20409;-79
2023/01/17 08:38:39;;;;;;;2.42;0.93;;;14.80;99.90;;;;;;5041118;28;20042;-77
2023/01/17 08:41:05;;;;;;;1.73;0.70;;;14.90;99.90;;;;;;5050184;28;20064;-83
2023/01/17 08:43:31;;;;;;;3.28;0.88;;;14.90;99.90;;;;;;5050201;28;20036;-80
2023/01/17 08:45:57;;;;;;;1.70;0.70;;;14.90;99.90;;;;;;5051553;28;20036;-71
2023/01/17 08:48:24;;;;;;;1.85;0.60;;;15.00;99.90;;;;;;5050754;28;20463;-77
2023/01/17 08:50:50;;;;;;;4.85;0.80;;;15.00;99.90;;;;;;5051229;28;20112;-73
2023/01/17 08:53:17;;;;;;;1.70;0.70;;;15.10;99.90;;;;;;5051542;28;20137;-80
2023/01/17 08:55:43;;;;;;;3.83;1.33;;;15.10;99.90;;;;;;5042022;28;20337;-70
2023/01/17 08:58:08;;;;;;;4.00;1.15;;;15.10;99.90;;;;;;5051076;28;20045;-74
2023/01/17 09:00:34;;;;;;;3.15;0.73;;;15.10;99.90;;;;;;5051152;28;20452;-78
2023/01/17 09:03:00;;;;;;;4.15;0.88;;;15.10;99.90;;;;;;5034221;28;20040;-78
2023/01/17 09:05:27;;;;;;;2.85;0.80;;;15.20;99.90;;;;;;5055490;28;20029;-75
2023/01/17 09:07:54;;;;;;;3.00;0.80;;;15.20;99.90;;;;;;5040553;28;20041;-81
2023/01/17 09:10:22;;;;;;;2.88;0.80;;;15.20;99.90;;;;;;5035373;28;20033;-72
2023/01/17 09:12:48;;;;;;;2.33;0.70;;;15.20;99.90;;;;;;5035703;28;20037;-72
2023/01/17 09:15:18;;;;;;;2.92;0.80;;;15.30;99.90;;;;;;5034428;28;20039;-73
2023/01/17 09:17:46;;;;;;;3.92;0.80;;;15.30;99.90;;;;;;5035360;28;20041;-77
2023/01/17 09:20:12;;;;;;;2.50;0.70;;;15.30;99.90;;;;;;5037642;28;20025;-74
2023/01/17 09:22:38;;;;;;;3.78;0.82;;;15.30;99.90;;;;;;5039205;28;20057;-78
2023/01/17 09:25:05;;;;;;;3.30;0.88;;;15.30;99.90;;;;;;5038579;28;20060;-76
2023/01/17 09:27:31;;;;;;;3.20;0.70;;;15.40;99.90;;;;;;5037642;28;20051;-77
2023/01/17 09:29:57;;;;;;;2.28;0.80;;;15.40;99.90;;;;;;5037935;28;20037;-75
2023/01/17 09:32:23;;;;;;;3.60;0.80;;;15.40;99.90;;;;;;5037160;28;20421;-72
2023/01/17 09:34:49;;;;;;;5.10;0.80;;;15.40;99.90;;;;;;5037225;28;20033;-78
2023/01/17 09:37:15;;;;;;;6.00;0.80;;;15.40;99.90;;;;;;5037481;28;20041;-75
2023/01/17 09:39:41;;;;;;;8.82;1.42;;;15.40;99.90;;;;;;5038342;28;20026;-77
2023/01/17 09:42:19;;;;;;;6.68;0.80;;;15.40;99.90;;;;;;5038342;28;20025;-74
2023/01/17 09:44:50;;;;;;;3.83;1.15;;;15.40;99.90;;;;;;5038333;28;20029;-67
2023/01/17 09:47:35;;;;;;;8.77;1.17;;;15.50;99.90;;;;;;5035916;28;20030;-67
2023/01/17 09:50:23;;;;;;;5.18;1.25;;;15.60;99.90;;;;;;5034518;28;20116;-67
2023/01/17 09:52:49;;;;;;;3.88;1.00;;;15.60;99.90;;;;;;5037182;28;20383;-67
2023/01/17 09:55:16;;;;;;;4.07;0.95;;;15.80;99.90;;;;;;5031625;28;20026;-66
2023/01/17 09:58:23;;;;;;;4.50;1.05;;;15.80;99.90;;;;;;5036622;28;20360;-66
2023/01/17 10:01:26;;;;;;;2.88;0.68;;;15.90;99.90;;;;;;4989734;28;20426;-67
2023/01/17 10:03:52;;;;;;;3.33;0.88;;;16.00;99.90;;;;;;4910110;28;20045;-67
2023/01/17 10:06:26;;;;;;;4.22;0.82;;;16.00;99.90;;;;;;5024118;28;20298;-66
2023/01/17 10:09:06;;;;;;;3.03;0.88;;;16.10;99.90;;;;;;5033237;28;20421;-66
2023/01/17 10:11:42;;;;;;;9.05;0.90;;;16.10;99.90;;;;;;5032319;28;20044;-66
2023/01/17 10:14:53;;;;;;;2.03;0.68;;;16.10;99.90;;;;;;5036602;28;20314;-67
2023/01/17 10:17:55;;;;;;;4.88;0.73;;;16.10;99.90;;;;;;5016031;28;20041;-67
2023/01/17 10:21:13;;;;;;;1.60;0.70;;;16.00;99.90;;;;;;5034864;28;20040;-68
2023/01/17 10:23:56;;;;;;;3.83;0.80;;;16.00;99.90;;;;;;5015167;28;20088;-67
2023/01/17 10:26:26;;;;;;;3.80;0.90;;;15.90;99.90;;;;;;5031032;28;20042;-67
2023/01/17 10:28:57;;;;;;;5.85;0.93;;;15.90;99.90;;;;;;5033846;28;20036;-66
2023/01/17 10:31:32;;;;;;;1.55;0.60;;;15.90;99.90;;;;;;5033982;28;20440;-68
2023/01/17 10:34:19;;;;;;;2.05;0.60;;;15.90;99.90;;;;;;5018253;28;20121;-67
2023/01/17 10:36:51;;;;;;;2.72;0.70;;;15.90;99.90;;;;;;5035972;28;20037;-67
2023/01/17 10:39:23;;;;;;;1.15;0.70;;;15.90;99.90;;;;;;5035879;28;20428;-66
2023/01/17 10:42:10;;;;;;;2.60;0.70;;;15.90;99.90;;;;;;5036209;28;20034;-67
2023/01/17 10:45:00;;;;;;;3.28;0.90;;;15.90;99.90;;;;;;5035506;28;20060;-67
2023/01/17 10:47:29;;;;;;;2.28;0.80;;;15.90;99.90;;;;;;5017515;28;20033;-68
2023/01/17 10:50:01;;;;;;;2.50;0.70;;;15.90;99.90;;;;;;5035076;28;20083;-67
2023/01/17 10:52:49;;;;;;;3.10;0.70;;;16.00;99.90;;;;;;5035964;28;20105;-66
